Time;durP1;ratioP1;P1;durP2;ratioP2;P2;SDS_P1;SDS_P2;PMS_P1;PMS_P2;Temp;Humidity;BMP_temperature;BMP_pressure;BME280_temperature;BME280_humidity;BME280_pressure;Samples;Min_cycle;Max_cycle;Signal;HPM_P1;HPM_P2
2023/12/03 00:00:39;;;;;;;3.90;3.60;;;;;;;5.87;nan;-23980.72;4936019;29;20238;-63
2023/12/03 00:03:06;;;;;;;6.57;3.63;;;;;;;5.38;nan;-23966.94;4936045;29;20206;-64
2023/12/03 00:05:31;;;;;;;7.30;3.93;;;;;;;5.86;nan;-23980.44;4935969;29;20175;-63
2023/12/03 00:07:57;;;;;;;4.03;3.10;;;;;;;5.78;nan;-23978.16;4935747;29;20175;-64
2023/12/03 00:10:23;;;;;;;4.03;3.63;;;;;;;5.54;nan;-23971.34;4935236;29;20236;-62
2023/12/03 00:12:48;;;;;;;3.90;3.40;;;;;;;5.60;nan;-23973.03;4935581;29;20756;-63
2023/12/03 00:15:14;;;;;;;5.03;3.67;;;;;;;5.78;nan;-23978.31;4935904;29;20257;-64
2023/12/03 00:17:39;;;;;;;6.90;4.87;;;;;;;5.60;nan;-23973.19;4918509;29;20175;-64
2023/12/03 00:20:05;;;;;;;4.97;2.93;;;;;;;5.59;nan;-23972.91;4935581;29;20567;-63
2023/12/03 00:22:31;;;;;;;6.13;3.17;;;;;;;5.52;nan;-23970.91;4935964;29;20181;-63
2023/12/03 00:24:56;;;;;;;5.83;3.30;;;;;;;5.36;nan;-23966.22;4935702;29;20311;-62
2023/12/03 00:27:22;;;;;;;3.80;3.00;;;;;;;5.33;nan;-23965.50;4936140;29;20626;-63
2023/12/03 00:29:47;;;;;;;3.20;3.00;;;;;;;5.63;nan;-23973.91;4918860;29;20187;-62
2023/12/03 00:32:12;;;;;;;4.63;3.10;;;;;;;5.70;nan;-23975.88;4935888;29;20183;-64
2023/12/03 00:34:38;;;;;;;5.93;3.37;;;;;;;5.74;nan;-23977.03;4935755;29;20179;-62
2023/12/03 00:37:03;;;;;;;6.17;4.40;;;;;;;5.52;nan;-23970.78;4935695;29;20175;-63
2023/12/03 00:39:29;;;;;;;3.23;2.63;;;;;;;5.43;nan;-23968.34;4936071;29;20258;-62
2023/12/03 00:41:54;;;;;;;3.27;2.97;;;;;;;1.50;nan;-23857.59;4935993;29;20174;-63
2023/12/03 00:44:20;;;;;;;5.77;3.27;;;;;;;5.31;nan;-23965.09;4934646;29;20253;-62
2023/12/03 00:46:45;;;;;;;3.40;3.10;;;;;;;5.52;nan;-23970.91;4935825;29;20257;-62
2023/12/03 00:49:10;;;;;;;7.00;4.27;;;;;;;5.38;nan;-23966.78;4936077;29;20551;-62
2023/12/03 00:51:36;;;;;;;4.07;3.47;;;;;;;5.52;nan;-23970.78;4937083;29;20682;-63
2023/12/03 00:54:01;;;;;;;4.77;2.73;;;;;;;5.47;nan;-23969.34;4935494;29;20241;-63
2023/12/03 00:56:27;;;;;;;5.23;4.73;;;;;;;5.31;nan;-23964.94;4935628;29;20187;-62
2023/12/03 00:58:52;;;;;;;3.73;2.93;;;;;;;5.10;nan;-23959.13;4935502;29;20274;-63
2023/12/03 01:01:20;;;;;;;5.17;3.50;;;;;;;5.11;nan;-23959.41;4935167;29;20202;-63
2023/12/03 01:03:45;;;;;;;3.20;2.87;;;;;;;4.92;nan;-23954.00;4935208;29;20738;-64
2023/12/03 01:06:11;;;;;;;2.77;2.33;;;;;;;4.45;nan;-23940.75;4935544;29;20265;-63
2023/12/03 01:08:36;;;;;;;9.00;4.03;;;;;;;4.87;nan;-23952.72;4935222;29;20183;-62
2023/12/03 01:11:06;;;;;;;2.60;2.40;;;;;;;4.96;nan;-23955.00;4918660;29;20175;-63
2023/12/03 01:13:31;;;;;;;4.90;3.27;;;;;;;5.03;nan;-23957.13;4935378;29;20669;-62
2023/12/03 01:15:57;;;;;;;3.13;2.90;;;;;;;5.40;nan;-23967.50;4935329;29;20207;-62
2023/12/03 01:18:22;;;;;;;4.00;2.83;;;;;;;4.83;nan;-23951.44;4935301;29;20178;-63
2023/12/03 01:20:48;;;;;;;4.23;3.40;;;;;;;5.19;nan;-23961.66;4935127;29;20171;-62
2023/12/03 01:23:13;;;;;;;4.67;3.47;;;;;;;5.29;nan;-23964.50;4934938;29;20198;-63
2023/12/03 01:25:39;;;;;;;4.17;3.07;;;;;;;5.47;nan;-23969.34;4935224;29;20206;-63
2023/12/03 01:28:04;;;;;;;3.67;3.37;;;;;;;5.49;nan;-23970.06;4934920;29;20234;-62
2023/12/03 01:30:30;;;;;;;3.93;2.97;;;;;;;5.41;nan;-23967.78;4934884;29;20175;-62
2023/12/03 01:32:55;;;;;;;5.00;3.73;;;;;;;5.24;nan;-23962.94;4934868;29;20501;-63
2023/12/03 01:35:20;;;;;;;3.93;2.80;;;;;;;5.47;nan;-23969.50;4934707;29;20210;-62
2023/12/03 01:37:46;;;;;;;4.03;3.73;;;;;;;5.43;nan;-23968.22;4934562;29;20265;-63
2023/12/03 01:40:11;;;;;;;4.53;3.17;;;;;;;5.42;nan;-23968.06;4934569;29;20185;-62
2023/12/03 01:42:38;;;;;;;2.67;2.47;;;;;;;5.32;nan;-23965.38;4935140;29;20288;-61
2023/12/03 01:45:03;;;;;;;3.30;2.90;;;;;;;5.43;nan;-23968.22;4934337;29;20198;-63
2023/12/03 01:47:29;;;;;;;3.63;3.23;;;;;;;5.45;nan;-23968.78;4934418;29;20174;-63
2023/12/03 01:49:55;;;;;;;4.00;3.33;;;;;;;5.46;nan;-23969.06;4934712;29;20214;-62
2023/12/03 01:52:22;;;;;;;2.37;2.20;;;;;;;5.34;nan;-23965.94;4934280;29;20171;-62
2023/12/03 01:54:48;;;;;;;3.53;3.23;;;;;;;5.19;nan;-23961.66;4934636;29;20272;-64
2023/12/03 01:57:14;;;;;;;2.90;2.70;;;;;;;5.46;nan;-23969.06;4934099;29;20179;-62
2023/12/03 01:59:40;;;;;;;3.10;2.90;;;;;;;5.36;nan;-23966.38;4934448;29;20175;-62
2023/12/03 02:02:05;;;;;;;3.97;3.57;;;;;;;5.39;nan;-23967.06;4934335;29;20179;-62
2023/12/03 02:04:31;;;;;;;2.80;2.60;;;;;;;5.32;nan;-23965.38;4934417;29;20214;-62
2023/12/03 02:06:56;;;;;;;7.70;4.67;;;;;;;5.11;nan;-23959.41;4933944;29;20187;-62
2023/12/03 02:09:22;;;;;;;4.27;2.97;;;;;;;5.16;nan;-23960.81;4934561;29;20218;-63
2023/12/03 02:11:47;;;;;;;2.30;2.17;;;;;;;5.09;nan;-23958.69;4934000;29;20182;-62
2023/12/03 02:14:14;;;;;;;6.87;3.10;;;;;;;5.17;nan;-23960.97;4934545;29;20202;-62
2023/12/03 02:16:47;;;;;;;2.90;2.63;;;;;;;5.11;nan;-23959.41;4934182;29;20214;-62
2023/12/03 02:19:13;;;;;;;3.30;3.03;;;;;;;5.27;nan;-23963.94;4934139;29;20183;-62
2023/12/03 02:21:38;;;;;;;4.30;4.00;;;;;;;5.09;nan;-23958.81;4933643;29;20175;-63
2023/12/03 02:24:04;;;;;;;4.47;3.37;;;;;;;5.32;nan;-23965.38;4934054;29;20206;-63
2023/12/03 02:26:29;;;;;;;3.27;3.07;;;;;;;5.06;nan;-23957.97;4933957;29;20182;-62
2023/12/03 02:28:55;;;;;;;2.87;2.67;;;;;;;5.27;nan;-23963.94;4933718;29;20623;-63
2023/12/03 02:31:20;;;;;;;3.37;3.07;;;;;;;5.29;nan;-23964.50;4933839;29;20178;-63
2023/12/03 02:33:58;;;;;;;2.83;2.60;;;;;;;4.97;nan;-23955.41;4934020;29;20214;-63
2023/12/03 02:36:23;;;;;;;7.07;3.40;;;;;;;5.00;nan;-23956.25;4933880;29;20560;-62
2023/12/03 02:38:49;;;;;;;3.67;2.13;;;;;;;5.18;nan;-23961.38;4933850;29;20174;-62
2023/12/03 02:41:14;;;;;;;2.40;2.03;;;;;;;4.87;nan;-23952.72;4933806;29;20179;-62
2023/12/03 02:43:40;;;;;;;2.27;2.07;;;;;;;5.20;nan;-23961.97;4933470;29;20202;-62
2023/12/03 02:46:05;;;;;;;2.30;2.20;;;;;;;5.02;nan;-23956.69;4933682;29;20179;-63
2023/12/03 02:48:31;;;;;;;2.73;2.37;;;;;;;5.24;nan;-23963.09;4933439;29;20205;-63
2023/12/03 02:50:56;;;;;;;2.60;2.40;;;;;;;5.16;nan;-23960.69;4934079;29;20186;-63
2023/12/03 02:53:22;;;;;;;3.77;3.30;;;;;;;4.90;nan;-23953.44;4933523;29;20225;-63
2023/12/03 02:55:47;;;;;;;3.50;2.60;;;;;;;5.04;nan;-23957.41;4933788;29;20188;-63
2023/12/03 02:58:12;;;;;;;2.80;2.60;;;;;;;5.13;nan;-23959.97;4933577;29;20551;-63
2023/12/03 03:00:38;;;;;;;2.53;2.33;;;;;;;4.80;nan;-23950.72;4933597;29;20184;-63
2023/12/03 03:03:03;;;;;;;3.07;2.50;;;;;;;4.60;nan;-23944.88;4933555;29;20174;-62
2023/12/03 03:05:29;;;;;;;3.93;3.63;;;;;;;4.75;nan;-23949.31;4933491;29;20193;-63
2023/12/03 03:07:54;;;;;;;3.13;2.20;;;;;;;4.76;nan;-23949.59;4940281;29;20356;-62
2023/12/03 03:10:19;;;;;;;4.27;3.47;;;;;;;5.01;nan;-23956.56;4956202;29;20178;-63
2023/12/03 03:12:45;;;;;;;5.57;3.53;;;;;;;5.07;nan;-23958.25;4955892;28;20185;-62
2023/12/03 03:15:10;;;;;;;4.97;2.67;;;;;;;4.93;nan;-23954.28;4956365;29;20630;-62
2023/12/03 03:17:36;;;;;;;2.70;2.23;;;;;;;4.82;nan;-23951.16;4955952;29;20205;-63
2023/12/03 03:20:01;;;;;;;2.80;2.60;;;;;;;4.85;nan;-23952.00;4956350;29;20266;-62
2023/12/03 03:22:26;;;;;;;3.73;3.43;;;;;;;4.83;nan;-23951.44;4955828;29;20643;-61
2023/12/03 03:24:52;;;;;;;2.50;2.30;;;;;;;4.66;nan;-23946.75;4955807;29;20586;-63
2023/12/03 03:27:18;;;;;;;2.83;2.37;;;;;;;4.92;nan;-23954.00;4956238;29;20167;-63
2023/12/03 03:29:43;;;;;;;3.73;2.73;;;;;;;4.75;nan;-23949.16;4955698;29;20174;-64
2023/12/03 03:32:09;;;;;;;2.40;2.20;;;;;;;4.67;nan;-23947.03;4955671;29;20181;-63
2023/12/03 03:34:34;;;;;;;2.70;2.50;;;;;;;4.85;nan;-23952.16;4955936;29;20186;-64
2023/12/03 03:37:00;;;;;;;3.60;2.60;;;;;;;5.15;nan;-23960.53;4955879;29;20177;-63
2023/12/03 03:39:25;;;;;;;7.37;2.97;;;;;;;5.03;nan;-23956.97;4955951;29;20272;-62
2023/12/03 03:41:51;;;;;;;2.13;2.03;;;;;;;5.17;nan;-23960.97;4955882;29;20184;-64
2023/12/03 03:44:16;;;;;;;4.77;3.20;;;;;;;5.14;nan;-23960.09;4956065;29;20284;-65
2023/12/03 03:46:41;;;;;;;2.53;2.33;;;;;;;5.26;nan;-23963.66;4956295;28;20218;-63
2023/12/03 03:49:07;;;;;;;3.27;2.53;;;;;;;5.22;nan;-23962.53;4956081;29;20530;-63
2023/12/03 03:51:32;;;;;;;2.23;2.07;;;;;;;5.37;nan;-23966.50;4955824;29;20178;-61
2023/12/03 03:53:58;;;;;;;2.60;2.43;;;;;;;5.35;nan;-23966.09;4956152;29;20230;-63
2023/12/03 03:56:23;;;;;;;3.50;3.20;;;;;;;5.33;nan;-23965.66;4955694;28;20186;-63
2023/12/03 03:58:48;;;;;;;1.87;1.77;;;;;;;5.34;nan;-23965.78;4956486;29;20178;-61
2023/12/03 04:01:14;;;;;;;4.10;3.57;;;;;;;5.53;nan;-23971.06;4955461;29;20178;-62
2023/12/03 04:03:39;;;;;;;2.43;2.23;;;;;;;5.46;nan;-23969.22;4954943;29;20190;-62
2023/12/03 04:06:06;;;;;;;2.60;2.33;;;;;;;4.86;nan;-23952.28;4956137;29;20266;-63
2023/12/03 04:08:32;;;;;;;3.27;2.67;;;;;;;5.46;nan;-23969.22;4955442;29;20181;-63
2023/12/03 04:11:04;;;;;;;2.60;2.27;;;;;;;5.38;nan;-23966.94;4955723;29;20666;-62
2023/12/03 04:13:30;;;;;;;2.97;2.67;;;;;;;5.57;nan;-23972.34;4955788;29;20174;-63
2023/12/03 04:15:56;;;;;;;2.47;2.30;;;;;;;5.23;nan;-23962.81;4955467;29;20182;-63
2023/12/03 04:18:23;;;;;;;2.87;2.60;;;;;;;5.50;nan;-23970.22;4937956;28;20186;-61
2023/12/03 04:20:49;;;;;;;2.13;1.93;;;;;;;5.60;nan;-23973.03;4955282;29;20174;-63
2023/12/03 04:23:14;;;;;;;2.53;2.07;;;;;;;5.58;nan;-23972.47;4937914;29;20185;-63
2023/12/03 04:25:39;;;;;;;2.10;2.00;;;;;;;5.44;nan;-23968.63;4955314;28;20271;-62
2023/12/03 04:28:05;;;;;;;1.50;1.40;;;;;;;5.56;nan;-23972.06;4955315;28;20178;-63
2023/12/03 04:30:31;;;;;;;2.37;2.17;;;;;;;5.70;nan;-23976.03;4954917;29;20282;-63
2023/12/03 04:32:56;;;;;;;3.97;2.43;;;;;;;5.71;nan;-23976.16;4954933;29;20230;-63
2023/12/03 04:35:22;;;;;;;2.10;2.00;;;;;;;5.67;nan;-23975.03;4955369;29;20361;-63
2023/12/03 04:37:47;;;;;;;2.30;2.17;;;;;;;5.57;nan;-23972.19;4955162;29;20309;-62
2023/12/03 04:40:13;;;;;;;2.17;2.07;;;;;;;5.60;nan;-23973.03;4954921;29;20231;-63
2023/12/03 04:42:38;;;;;;;3.20;2.03;;;;;;;5.30;nan;-23964.81;4955115;28;20194;-63
2023/12/03 04:45:04;;;;;;;4.33;2.60;;;;;;;5.58;nan;-23972.47;4954905;29;20209;-64
2023/12/03 04:47:29;;;;;;;2.17;1.97;;;;;;;5.29;nan;-23964.50;4955300;29;20584;-62
2023/12/03 04:49:55;;;;;;;4.00;2.53;;;;;;;5.55;nan;-23971.63;4961537;28;20181;-63
2023/12/03 04:52:20;;;;;;;3.33;2.23;;;;;;;5.36;nan;-23966.22;4973831;28;20213;-62
2023/12/03 04:54:46;;;;;;;1.70;1.53;;;;;;;5.55;nan;-23971.75;4973891;28;20679;-63
2023/12/03 04:57:11;;;;;;;2.70;2.10;;;;;;;5.61;nan;-23973.47;4973944;28;20223;-62
2023/12/03 04:59:36;;;;;;;1.80;1.70;;;;;;;5.45;nan;-23968.78;4973852;28;20180;-63
2023/12/03 05:02:02;;;;;;;2.37;2.17;;;;;;;5.53;nan;-23971.06;4974670;28;20185;-62
2023/12/03 05:04:27;;;;;;;2.57;1.70;;;;;;;5.67;nan;-23975.03;4974213;28;20216;-63
2023/12/03 05:06:53;;;;;;;2.30;2.10;;;;;;;5.62;nan;-23973.75;4973867;28;20276;-62
2023/12/03 05:09:18;;;;;;;1.57;1.47;;;;;;;5.71;nan;-23976.31;4973854;28;20178;-63
2023/12/03 05:11:44;;;;;;;1.80;1.70;;;;;;;5.74;nan;-23977.16;4973674;28;20177;-62
2023/12/03 05:14:10;;;;;;;2.83;2.20;;;;;;;5.62;nan;-23973.75;4973425;28;20189;-63
2023/12/03 05:16:36;;;;;;;4.17;2.27;;;;;;;5.55;nan;-23971.75;4973158;28;20178;-64
2023/12/03 05:19:01;;;;;;;2.83;2.60;;;;;;;5.75;nan;-23977.31;4973653;28;20201;-62
2023/12/03 05:21:27;;;;;;;1.80;1.70;;;;;;;5.23;nan;-23962.66;4973433;28;20268;-62
2023/12/03 05:23:52;;;;;;;1.63;1.53;;;;;;;5.81;nan;-23978.88;4973437;28;20245;-62
2023/12/03 05:26:17;;;;;;;3.40;2.17;;;;;;;5.67;nan;-23975.19;4973348;28;20257;-62
2023/12/03 05:28:44;;;;;;;2.10;1.83;;;;;;;5.56;nan;-23971.91;4973192;28;20645;-63
2023/12/03 05:31:09;;;;;;;2.67;2.47;;;;;;;5.61;nan;-23973.47;4972421;28;20586;-63
2023/12/03 05:33:34;;;;;;;3.67;2.13;;;;;;;5.61;nan;-23973.34;4973600;28;20177;-62
2023/12/03 05:36:00;;;;;;;4.50;2.00;;;;;;;5.77;nan;-23977.88;4973207;28;20174;-62
2023/12/03 05:38:25;;;;;;;2.27;2.07;;;;;;;5.84;nan;-23979.72;4973349;28;20233;-63
2023/12/03 05:40:51;;;;;;;1.43;1.33;;;;;;;5.69;nan;-23975.75;4973244;28;20217;-63
2023/12/03 05:43:16;;;;;;;2.13;1.83;;;;;;;5.82;nan;-23979.31;4973106;28;20173;-63
2023/12/03 05:45:42;;;;;;;2.60;2.37;;;;;;;2.52;nan;-23886.44;4972710;28;20645;-62
2023/12/03 05:48:07;;;;;;;1.80;1.70;;;;;;;5.74;nan;-23977.16;4972935;28;20184;-63
2023/12/03 05:50:33;;;;;;;2.63;2.43;;;;;;;5.95;nan;-23983.00;4972693;28;20500;-64
2023/12/03 05:52:59;;;;;;;2.03;1.83;;;;;;;6.08;nan;-23986.56;4973123;28;20560;-63
2023/12/03 05:55:24;;;;;;;1.50;1.40;;;;;;;6.10;nan;-23987.25;4973130;28;20287;-62
2023/12/03 05:57:50;;;;;;;2.37;2.17;;;;;;;6.06;nan;-23985.97;4972617;28;20178;-62
2023/12/03 06:00:15;;;;;;;1.70;1.60;;;;;;;5.83;nan;-23979.44;4972691;28;20215;-62
2023/12/03 06:02:41;;;;;;;1.70;1.60;;;;;;;6.06;nan;-23985.97;4973481;28;20174;-63
2023/12/03 06:05:07;;;;;;;2.13;2.00;;;;;;;6.12;nan;-23987.81;4972997;28;20574;-63
2023/12/03 06:07:32;;;;;;;3.37;3.07;;;;;;;6.21;nan;-23990.38;4972845;28;20172;-62
2023/12/03 06:09:58;;;;;;;2.00;1.83;;;;;;;6.27;nan;-23991.81;4972709;28;20675;-63
2023/12/03 06:12:23;;;;;;;3.03;1.93;;;;;;;6.06;nan;-23985.97;4972528;28;20196;-64
2023/12/03 06:14:49;;;;;;;1.87;1.77;;;;;;;6.24;nan;-23990.94;4972195;28;20199;-62
2023/12/03 06:17:14;;;;;;;1.73;1.47;;;;;;;6.13;nan;-23987.97;4972315;28;20615;-63
2023/12/03 06:19:39;;;;;;;1.80;1.70;;;;;;;6.14;nan;-23988.41;4972659;28;20745;-64
2023/12/03 06:22:05;;;;;;;1.97;1.87;;;;;;;6.33;nan;-23993.66;4972351;28;20180;-64
2023/12/03 06:24:30;;;;;;;2.63;2.30;;;;;;;6.25;nan;-23991.22;4972162;28;20211;-62
2023/12/03 06:26:56;;;;;;;3.90;2.20;;;;;;;6.33;nan;-23993.66;4972792;28;20595;-64
2023/12/03 06:29:21;;;;;;;1.90;1.80;;;;;;;6.17;nan;-23989.25;4971943;28;20203;-65
2023/12/03 06:31:49;;;;;;;2.03;1.87;;;;;;;6.46;nan;-23997.34;4972454;28;20697;-63
2023/12/03 06:34:15;;;;;;;2.37;2.17;;;;;;;5.86;nan;-23980.44;4972442;28;20172;-64
2023/12/03 06:36:41;;;;;;;3.50;2.27;;;;;;;6.48;nan;-23997.75;4955170;28;20173;-65
2023/12/03 06:39:07;;;;;;;2.03;1.90;;;;;;;6.35;nan;-23994.06;4972393;28;20166;-64
2023/12/03 06:41:33;;;;;;;2.73;2.40;;;;;;;6.46;nan;-23997.19;4953646;28;20179;-64
2023/12/03 06:43:58;;;;;;;2.50;2.30;;;;;;;6.66;nan;-24003.00;4932602;29;20269;-64
2023/12/03 06:46:24;;;;;;;2.90;1.93;;;;;;;6.64;nan;-24002.31;4933511;29;20167;-63
2023/12/03 06:48:49;;;;;;;1.90;1.80;;;;;;;6.67;nan;-24003.16;4933427;29;20600;-64
2023/12/03 06:51:15;;;;;;;1.47;1.37;;;;;;;6.42;nan;-23996.22;4933304;29;20217;-63
2023/12/03 06:53:40;;;;;;;2.43;2.23;;;;;;;6.54;nan;-23999.47;4915855;29;20330;-64
2023/12/03 06:56:09;;;;;;;2.40;2.20;;;;;;;5.77;nan;-23977.88;4935053;29;20198;-64
2023/12/03 06:58:34;;;;;;;3.50;2.00;;;;;;;6.47;nan;-23997.63;4952210;29;20174;-64
2023/12/03 07:01:00;;;;;;;2.77;2.37;;;;;;;6.74;nan;-24005.00;4952183;29;20188;-63
2023/12/03 07:03:25;;;;;;;2.23;2.13;;;;;;;6.86;nan;-24008.41;4952426;29;20707;-64
2023/12/03 07:05:50;;;;;;;2.43;2.27;;;;;;;6.58;nan;-24000.75;4952461;29;20186;-64
2023/12/03 07:08:16;;;;;;;2.43;2.23;;;;;;;6.85;nan;-24008.25;4951988;29;20177;-63
2023/12/03 07:10:41;;;;;;;2.70;2.50;;;;;;;6.95;nan;-24010.97;4952488;29;20181;-64
2023/12/03 07:13:07;;;;;;;6.67;2.73;;;;;;;6.40;nan;-23995.50;4952141;28;20174;-64
2023/12/03 07:15:32;;;;;;;1.83;1.73;;;;;;;6.82;nan;-24007.41;4952274;29;20671;-66
2023/12/03 07:17:58;;;;;;;2.00;1.80;;;;;;;6.97;nan;-24011.53;4952579;28;20226;-66
2023/12/03 07:20:23;;;;;;;2.03;1.93;;;;;;;6.89;nan;-24009.25;4952142;29;20186;-62
2023/12/03 07:22:49;;;;;;;3.30;2.33;;;;;;;6.93;nan;-24010.41;4935005;29;20190;-65
2023/12/03 07:25:14;;;;;;;2.80;2.37;;;;;;;6.95;nan;-24011.09;4951932;29;20260;-63
2023/12/03 07:27:40;;;;;;;2.87;2.63;;;;;;;6.83;nan;-24007.69;4952514;29;20529;-64
2023/12/03 07:30:06;;;;;;;2.17;2.07;;;;;;;6.99;nan;-24012.09;4952048;29;20212;-63
2023/12/03 07:32:31;;;;;;;2.20;2.00;;;;;;;7.33;nan;-24021.59;4934962;29;20170;-63
2023/12/03 07:34:57;;;;;;;1.87;1.77;;;;;;;7.43;nan;-24024.44;4952197;29;20178;-63
2023/12/03 07:37:22;;;;;;;1.93;1.83;;;;;;;7.32;nan;-24021.31;4952124;29;20175;-63
2023/12/03 07:39:48;;;;;;;2.63;2.43;;;;;;;6.27;nan;-23991.81;4952200;29;20228;-65
2023/12/03 07:42:13;;;;;;;2.10;1.90;;;;;;;7.80;nan;-24034.91;4951971;29;20668;-64
2023/12/03 07:44:39;;;;;;;1.80;1.70;;;;;;;7.69;nan;-24031.66;4951703;29;20209;-63
2023/12/03 07:47:04;;;;;;;2.43;2.23;;;;;;;7.98;nan;-24039.88;4951885;29;20178;-64
2023/12/03 07:49:29;;;;;;;3.23;2.43;;;;;;;8.08;nan;-24042.72;4952429;29;20171;-64
2023/12/03 07:51:55;;;;;;;2.30;2.10;;;;;;;8.04;nan;-24041.44;4952177;29;20541;-64
2023/12/03 07:54:21;;;;;;;2.23;2.13;;;;;;;7.88;nan;-24037.19;4953714;28;20222;-64
2023/12/03 07:56:46;;;;;;;2.30;2.10;;;;;;;8.00;nan;-24040.44;4955483;29;20628;-65
2023/12/03 07:59:12;;;;;;;2.40;2.20;;;;;;;8.17;nan;-24045.13;4955428;29;20674;-66
2023/12/03 08:01:38;;;;;;;2.37;2.17;;;;;;;4.44;nan;-23940.63;4955010;29;20775;-64
2023/12/03 08:04:04;;;;;;;2.37;2.17;;;;;;;8.05;nan;-24041.72;4954964;29;20238;-63
2023/12/03 08:06:29;;;;;;;2.45;2.25;;;;;;;4.48;nan;-23941.47;4956221;29;20535;-64
2023/12/03 08:08:55;;;;;;;2.55;2.05;;;;;;;8.38;nan;-24051.22;4955195;29;20565;-64
2023/12/03 08:11:21;;;;;;;3.60;2.85;;;;;;;8.32;nan;-24049.38;4955018;29;20624;-64
2023/12/03 08:13:47;;;;;;;1.83;1.73;;;;;;;8.51;nan;-24054.59;4955182;29;20555;-64
2023/12/03 08:16:13;;;;;;;1.85;1.73;;;;;;;8.61;nan;-24057.56;4955247;29;20181;-64
2023/12/03 08:18:39;;;;;;;2.28;2.08;;;;;;;8.65;nan;-24058.72;4955131;29;20262;-64
2023/12/03 08:21:05;;;;;;;2.17;1.98;;;;;;;8.64;nan;-24058.44;4954867;29;20654;-64
2023/12/03 08:23:32;;;;;;;4.70;4.22;;;;;;;8.43;nan;-24052.63;4954884;28;20189;-63
2023/12/03 08:26:00;;;;;;;2.63;2.42;;;;;;;8.81;nan;-24063.25;4955062;28;20185;-64
2023/12/03 08:28:25;;;;;;;2.60;2.15;;;;;;;8.76;nan;-24061.69;4954570;29;20185;-62
2023/12/03 08:30:51;;;;;;;2.28;2.08;;;;;;;8.76;nan;-24061.81;4954816;29;20162;-64
2023/12/03 08:33:16;;;;;;;1.80;1.70;;;;;;;3.28;nan;-23907.84;4954701;29;20173;-62
2023/12/03 08:35:43;;;;;;;2.28;1.95;;;;;;;8.98;nan;-24067.75;4954466;29;20174;-63
2023/12/03 08:38:08;;;;;;;1.50;1.40;;;;;;;9.20;nan;-24074.13;4921491;29;20260;-64
2023/12/03 08:40:34;;;;;;;2.60;2.40;;;;;;;9.27;nan;-24076.09;4937289;29;20178;-64
2023/12/03 08:43:01;;;;;;;2.28;2.08;;;;;;;9.40;nan;-24079.50;4954394;29;20181;-63
2023/12/03 08:45:27;;;;;;;2.78;2.38;;;;;;;9.25;nan;-24075.41;4937330;29;20231;-63
2023/12/03 08:47:53;;;;;;;2.03;1.83;;;;;;;9.43;nan;-24080.50;4954568;28;20237;-64
2023/12/03 08:50:18;;;;;;;2.20;2.08;;;;;;;9.56;nan;-24084.03;4954450;29;20178;-64
2023/12/03 08:52:44;;;;;;;2.35;2.15;;;;;;;9.32;nan;-24077.53;4937308;29;20186;-64
2023/12/03 08:55:09;;;;;;;4.20;3.15;;;;;;;9.46;nan;-24081.19;4954314;28;20281;-64
2023/12/03 08:57:36;;;;;;;2.38;2.17;;;;;;;9.77;nan;-24090.09;4954330;28;20174;-64
2023/12/03 09:00:04;;;;;;;2.40;1.95;;;;;;;9.69;nan;-24087.84;4936227;29;20182;-64
2023/12/03 09:02:29;;;;;;;2.08;1.88;;;;;;;9.83;nan;-24091.66;4954200;29;20559;-64
2023/12/03 09:04:55;;;;;;;2.08;1.75;;;;;;;9.92;nan;-24094.19;4953474;28;20221;-64
2023/12/03 09:07:20;;;;;;;5.28;2.67;;;;;;;9.98;nan;-24095.88;4954541;29;20177;-64
2023/12/03 09:09:46;;;;;;;2.28;2.17;;;;;;;10.06;nan;-24098.00;4954031;29;20178;-66
2023/12/03 09:12:11;;;;;;;3.72;2.17;;;;;;;10.12;nan;-24099.69;4954167;29;20805;-62
2023/12/03 09:14:36;;;;;;;2.30;1.88;;;;;;;10.25;nan;-24103.38;4954170;29;20661;-64
2023/12/03 09:17:03;;;;;;;3.70;2.78;;;;;;;10.30;nan;-24104.66;4954171;29;20185;-65
2023/12/03 09:19:29;;;;;;;2.15;1.95;;;;;;;10.28;nan;-24104.06;4954018;29;20638;-62
2023/12/03 09:21:55;;;;;;;6.18;2.33;;;;;;;;;;4953828;29;20173;-64
2023/12/03 09:24:20;;;;;;;2.25;2.05;;;;;;;10.83;nan;-24119.47;4953821;29;20201;-64
2023/12/03 09:26:46;;;;;;;2.35;2.00;;;;;;;10.92;nan;-24122.13;4936595;29;20644;-64
2023/12/03 09:29:12;;;;;;;3.33;2.08;;;;;;;11.02;nan;-24124.81;4953617;28;20662;-63
2023/12/03 09:31:40;;;;;;;2.13;1.88;;;;;;;11.06;nan;-24126.09;4953672;29;20279;-63
2023/12/03 09:34:07;;;;;;;1.70;1.60;;;;;;;11.11;nan;-24127.34;4953145;29;20675;-62
2023/12/03 09:36:33;;;;;;;2.55;2.35;;;;;;;11.40;nan;-24135.38;4953771;29;20170;-63
2023/12/03 09:38:59;;;;;;;2.50;2.22;;;;;;;11.40;nan;-24135.53;4953541;29;20253;-63
2023/12/03 09:41:25;;;;;;;2.08;1.88;;;;;;;11.62;nan;-24141.44;4953311;29;20685;-64
2023/12/03 09:43:58;;;;;;;1.90;1.73;;;;;;;11.78;nan;-24146.09;4952816;29;20232;-65
2023/12/03 09:46:24;;;;;;;2.10;1.95;;;;;;;11.68;nan;-24143.13;4948332;29;20613;-63
2023/12/03 09:48:52;;;;;;;1.85;1.75;;;;;;;11.88;nan;-24148.78;4945257;29;20224;-64
2023/12/03 09:51:19;;;;;;;1.48;1.35;;;;;;;12.06;nan;-24151.97;4953682;28;20282;-63
2023/12/03 09:53:46;;;;;;;1.70;1.60;;;;;;;12.26;nan;-24157.47;4952889;29;20232;-65
2023/12/03 09:56:13;;;;;;;1.77;1.67;;;;;;;12.31;nan;-23839.50;4953200;29;20646;-62
2023/12/03 09:58:39;;;;;;;3.97;2.40;;;;;;;12.47;nan;-23524.00;4953233;29;20317;-64
2023/12/03 10:01:05;;;;;;;2.20;1.75;;;;;;;12.71;nan;-22890.91;4953506;29;20182;-63
2023/12/03 10:03:31;;;;;;;1.85;1.73;;;;;;;12.56;nan;-22886.97;4935704;29;20202;-64
2023/12/03 10:05:57;;;;;;;2.88;2.42;;;;;;;12.70;nan;-22890.63;4953565;28;20637;-64
2023/12/03 10:08:23;;;;;;;1.75;1.65;;;;;;;12.82;nan;-22893.75;4954073;29;20204;-64
2023/12/03 10:10:59;;;;;;;3.22;2.70;;;;;;;13.07;nan;-22580.09;4953486;29;20181;-63
2023/12/03 10:13:26;;;;;;;2.25;1.83;;;;;;;13.00;nan;-22578.31;4953535;29;20268;-65
2023/12/03 10:15:52;;;;;;;2.28;2.03;;;;;;;13.04;nan;-22899.47;4953234;29;20180;-63
2023/12/03 10:18:18;;;;;;;2.00;1.80;;;;;;;13.20;nan;-22903.50;4952789;28;20178;-63
2023/12/03 10:20:44;;;;;;;2.08;1.88;;;;;;;13.28;nan;-21624.94;4952175;29;20170;-63
2023/12/03 10:23:16;;;;;;;2.65;2.45;;;;;;;13.14;nan;-21941.75;4953570;28;20182;-64
2023/12/03 10:25:41;;;;;;;2.80;2.30;;;;;;;13.10;nan;-22580.97;4953159;29;20245;-63
2023/12/03 10:28:08;;;;;;;2.97;1.80;;;;;;;13.25;nan;-22904.81;4953138;28;20182;-63
2023/12/03 10:30:36;;;;;;;2.65;2.05;;;;;;;13.37;nan;-22587.75;4953218;29;20178;-64
2023/12/03 10:33:04;;;;;;;3.33;2.33;;;;;;;13.25;nan;-22584.69;4953068;29;20641;-64
2023/12/03 10:35:34;;;;;;;3.38;3.05;;;;;;;13.41;nan;-21627.94;4952660;28;20185;-62
2023/12/03 10:38:00;;;;;;;3.30;2.17;;;;;;;12.74;nan;-21931.97;4953111;29;20232;-63
2023/12/03 10:40:26;;;;;;;2.58;1.73;;;;;;;13.50;nan;-21629.97;4952852;29;20206;-63
2023/12/03 10:42:52;;;;;;;2.45;2.25;;;;;;;13.51;nan;-21309.81;4953048;29;20170;-64
2023/12/03 10:45:17;;;;;;;3.95;2.45;;;;;;;13.82;nan;-20675.84;4952759;29;20268;-63
2023/12/03 10:47:44;;;;;;;5.18;2.97;;;;;;;13.70;nan;-20032.09;4952892;29;20182;-63
2023/12/03 10:50:12;;;;;;;2.50;2.30;;;;;;;13.66;nan;-19069.16;4952994;29;20634;-64
2023/12/03 10:52:39;;;;;;;4.75;3.83;;;;;;;13.97;nan;-18754.38;4952686;29;20564;-62
2023/12/03 10:55:06;;;;;;;4.55;3.15;;;;;;;13.97;nan;-19396.09;4952951;28;20233;-63
2023/12/03 10:57:34;;;;;;;4.07;3.22;;;;;;;13.81;nan;-19072.00;4952861;29;20182;-63
2023/12/03 11:00:09;;;;;;;3.53;2.60;;;;;;;13.99;nan;-19396.41;4953086;29;20174;-62
2023/12/03 11:02:46;;;;;;;3.75;2.22;;;;;;;13.85;nan;-19393.56;4953180;29;20204;-63
2023/12/03 11:05:32;;;;;;;3.55;2.95;;;;;;;13.82;nan;-19713.81;4952943;29;20597;-64
2023/12/03 11:08:01;;;;;;;4.85;2.97;;;;;;;14.04;nan;-19076.53;4952754;29;20221;-63
2023/12/03 11:10:27;;;;;;;6.72;2.80;;;;;;;14.11;nan;-19398.84;4952719;29;20202;-63
2023/12/03 11:12:53;;;;;;;2.63;2.42;;;;;;;14.06;nan;-20039.63;4952213;28;20233;-64
2023/12/03 11:15:21;;;;;;;4.53;2.70;;;;;;;13.93;nan;-20036.75;4952804;29;20170;-63
2023/12/03 11:17:50;;;;;;;6.20;3.45;;;;;;;14.11;nan;-20040.59;4952813;29;20656;-62
2023/12/03 11:20:21;;;;;;;4.03;3.33;;;;;;;14.03;nan;-20039.00;4952729;29;20174;-63
2023/12/03 11:22:55;;;;;;;6.00;3.58;;;;;;;14.08;nan;-19077.31;4952261;29;20186;-64
2023/12/03 11:25:33;;;;;;;4.93;3.55;;;;;;;14.27;nan;-18759.94;4952278;29;20198;-63
2023/12/03 11:27:59;;;;;;;10.13;3.72;;;;;;;14.39;nan;-18120.03;4952617;28;20555;-64
2023/12/03 11:30:42;;;;;;;5.65;3.17;;;;;;;14.44;nan;-17799.63;4956286;28;20556;-65
2023/12/03 11:33:27;;;;;;;4.20;3.22;;;;;;;14.54;nan;-17480.16;4956376;29;20178;-63
2023/12/03 11:35:53;;;;;;;4.65;3.33;;;;;;;14.56;nan;-16837.69;4955273;28;20729;-63
2023/12/03 11:38:21;;;;;;;5.03;2.90;;;;;;;14.62;nan;-16517.13;4956514;29;20182;-63
2023/12/03 11:40:47;;;;;;;3.40;3.00;;;;;;;14.56;nan;-15873.41;4956081;29;20210;-64
2023/12/03 11:43:26;;;;;;;3.83;2.92;;;;;;;14.64;nan;-15874.44;4938628;29;20196;-63